Time;durP1;ratioP1;P1;durP2;ratioP2;P2;SDS_P1;SDS_P2;PMS_P1;PMS_P2;Temp;Humidity;BMP_temperature;BMP_pressure;BME280_temperature;BME280_humidity;BME280_pressure;Samples;Min_cycle;Max_cycle;Signal;HPM_P1;HPM_P2
2023/07/21 00:01:19;;;;;;;10.93;4.57;;;27.70;91.10;;;;;;5020664;28;20469;-76
2023/07/21 00:03:46;;;;;;;9.02;4.35;;;27.60;90.60;;;;;;5035233;28;20075;-77
2023/07/21 00:06:19;;;;;;;11.93;4.30;;;27.60;90.40;;;;;;5037044;28;20033;-75
2023/07/21 00:08:46;;;;;;;8.77;4.30;;;27.50;90.40;;;;;;5016648;28;20072;-76
2023/07/21 00:11:13;;;;;;;9.50;3.92;;;27.50;90.60;;;;;;5041612;28;20087;-76
2023/07/21 00:13:42;;;;;;;9.43;4.30;;;27.40;90.60;;;;;;5008592;28;20064;-77
2023/07/21 00:16:09;;;;;;;9.15;4.07;;;27.30;90.00;;;;;;5015569;28;20029;-79
2023/07/21 00:18:37;;;;;;;10.85;5.78;;;27.30;90.00;;;;;;5032972;28;20136;-79
2023/07/21 00:21:05;;;;;;;10.75;4.05;;;27.20;89.90;;;;;;5032624;28;20362;-74
2023/07/21 00:23:36;;;;;;;8.75;4.35;;;27.20;89.90;;;;;;5032236;28;20064;-78
2023/07/21 00:26:03;;;;;;;11.57;4.88;;;27.20;89.50;;;;;;5033845;28;20068;-80
2023/07/21 00:28:31;;;;;;;8.32;4.00;;;27.30;89.60;;;;;;5034284;28;20037;-80
2023/07/21 00:30:59;;;;;;;7.82;4.05;;;27.20;89.20;;;;;;5018156;28;20560;-78
2023/07/21 00:33:26;;;;;;;7.80;4.15;;;27.20;89.30;;;;;;5022710;28;20042;-76
2023/07/21 00:35:55;;;;;;;7.40;4.22;;;27.10;90.00;;;;;;5028676;28;20535;-76
2023/07/21 00:38:22;;;;;;;9.40;4.55;;;27.10;89.40;;;;;;5021949;28;20038;-77
2023/07/21 00:40:50;;;;;;;6.88;4.90;;;26.90;90.00;;;;;;5030214;28;20039;-78
2023/07/21 00:43:18;;;;;;;6.22;4.32;;;26.90;90.60;;;;;;5012027;28;20049;-77
2023/07/21 00:45:49;;;;;;;9.15;4.40;;;26.90;90.80;;;;;;5043034;28;20064;-78
2023/07/21 00:48:17;;;;;;;10.32;5.40;;;27.00;91.30;;;;;;5032535;28;20366;-77
2023/07/21 00:50:50;;;;;;;10.30;4.93;;;26.90;91.90;;;;;;5044780;28;20424;-78
2023/07/21 00:53:19;;;;;;;10.75;4.88;;;26.80;91.80;;;;;;5027129;28;20476;-78
2023/07/21 00:55:48;;;;;;;10.98;5.53;;;26.70;92.30;;;;;;5028049;28;20045;-77
2023/07/21 00:58:17;;;;;;;12.38;5.13;;;26.70;92.60;;;;;;5048501;28;20033;-77
2023/07/21 01:00:46;;;;;;;9.25;5.50;;;26.70;92.90;;;;;;4990181;28;20374;-77
2023/07/21 01:03:16;;;;;;;10.40;5.38;;;26.60;92.90;;;;;;5027998;28;20395;-78
2023/07/21 01:05:49;;;;;;;11.55;5.18;;;26.60;93.20;;;;;;5034278;28;20108;-78
2023/07/21 01:08:17;;;;;;;12.35;5.53;;;26.60;92.70;;;;;;5016659;28;20040;-80
2023/07/21 01:10:45;;;;;;;9.35;5.07;;;26.70;93.00;;;;;;5044509;28;20086;-79
2023/07/21 01:13:13;;;;;;;8.63;4.15;;;26.60;92.90;;;;;;5032919;28;20152;-77
2023/07/21 01:15:47;;;;;;;9.15;4.43;;;26.20;91.80;;;;;;5041325;28;20029;-79
2023/07/21 01:18:16;;;;;;;7.97;4.45;;;25.80;92.30;;;;;;5036438;28;20071;-78
2023/07/21 01:20:45;;;;;;;9.68;5.00;;;25.90;92.70;;;;;;5014414;28;20048;-77
2023/07/21 01:23:50;;;;;;;9.95;4.20;;;25.80;92.80;;;;;;5032723;28;20088;-79
2023/07/21 01:26:18;;;;;;;9.07;4.32;;;26.00;92.40;;;;;;5031107;28;20042;-79
2023/07/21 01:28:47;;;;;;;8.65;5.18;;;26.30;91.90;;;;;;5015787;28;20056;-79
2023/07/21 01:31:16;;;;;;;10.88;5.25;;;26.40;92.10;;;;;;5033686;28;20068;-79
2023/07/21 01:33:43;;;;;;;11.30;5.50;;;26.30;93.10;;;;;;5038333;28;20038;-79
2023/07/21 01:36:11;;;;;;;11.70;5.22;;;26.10;94.10;;;;;;5035936;28;20037;-80
2023/07/21 01:38:42;;;;;;;12.85;4.90;;;25.80;94.90;;;;;;5036929;28;20048;-79
2023/07/21 01:41:12;;;;;;;10.27;5.40;;;25.90;95.30;;;;;;5035444;28;20041;-78
2023/07/21 01:43:40;;;;;;;8.30;5.20;;;26.00;95.30;;;;;;5017716;28;20053;-77
2023/07/21 01:46:13;;;;;;;10.35;5.43;;;25.80;95.90;;;;;;5026571;28;20034;-79
2023/07/21 01:48:40;;;;;;;9.50;5.15;;;25.80;95.80;;;;;;5037315;28;20041;-78
2023/07/21 01:51:08;;;;;;;11.13;6.13;;;25.80;96.20;;;;;;5043503;28;20060;-77
2023/07/21 01:53:38;;;;;;;10.63;5.40;;;26.00;96.10;;;;;;5023458;28;20088;-78
2023/07/21 01:56:09;;;;;;;11.82;5.78;;;26.00;96.20;;;;;;5036654;28;20467;-78
2023/07/21 01:58:41;;;;;;;10.20;4.93;;;25.90;96.10;;;;;;5037876;28;20045;-79
2023/07/21 02:01:10;;;;;;;12.88;5.38;;;25.80;96.40;;;;;;4990135;28;20535;-79
2023/07/21 02:03:38;;;;;;;10.15;5.13;;;25.70;96.30;;;;;;5046399;28;20041;-78
2023/07/21 02:06:16;;;;;;;9.82;5.13;;;25.60;96.50;;;;;;5005242;28;20474;-79
2023/07/21 02:08:44;;;;;;;10.02;5.18;;;25.50;96.60;;;;;;5036861;28;20033;-79
2023/07/21 02:11:11;;;;;;;9.55;5.38;;;24.90;97.70;;;;;;5035629;28;20063;-78
2023/07/21 02:13:39;;;;;;;14.88;6.25;;;24.60;98.80;;;;;;5035648;28;20055;-79
2023/07/21 02:16:06;;;;;;;10.93;5.22;;;25.00;98.20;;;;;;5021900;28;20370;-80
2023/07/21 02:18:35;;;;;;;10.40;5.38;;;25.40;97.00;;;;;;5034816;28;20091;-80
2023/07/21 02:21:04;;;;;;;11.35;5.40;;;25.50;96.60;;;;;;5005311;28;20072;-79
2023/07/21 02:23:31;;;;;;;10.95;5.60;;;25.50;96.20;;;;;;5023966;28;20377;-79
2023/07/21 02:25:59;;;;;;;9.82;5.20;;;25.40;96.10;;;;;;5035240;28;20076;-81
2023/07/21 02:28:27;;;;;;;11.23;4.95;;;25.30;96.30;;;;;;5014268;28;20492;-82
2023/07/21 02:31:04;;;;;;;12.40;5.18;;;25.40;96.10;;;;;;5017936;28;20130;-80
2023/07/21 02:33:31;;;;;;;14.60;5.03;;;25.50;96.60;;;;;;5035201;28;20615;-81
2023/07/21 02:36:01;;;;;;;11.15;5.07;;;25.50;96.30;;;;;;5050484;28;20025;-82
2023/07/21 02:38:29;;;;;;;10.40;5.72;;;25.40;96.50;;;;;;5044304;28;20528;-80
2023/07/21 02:41:04;;;;;;;12.55;5.97;;;25.50;96.80;;;;;;4984989;28;20497;-80
2023/07/21 02:43:32;;;;;;;9.65;6.28;;;25.50;97.10;;;;;;4998043;28;20050;-78
2023/07/21 02:46:00;;;;;;;9.90;5.95;;;25.50;97.20;;;;;;5026778;28;20034;-79
2023/07/21 02:48:30;;;;;;;13.02;5.75;;;25.40;97.60;;;;;;5042253;28;20048;-78
2023/07/21 02:51:06;;;;;;;10.65;4.30;;;25.50;97.60;;;;;;4984706;28;20165;-79
2023/07/21 02:53:34;;;;;;;16.40;5.90;;;25.50;97.60;;;;;;5028373;28;20048;-78
2023/07/21 02:56:03;;;;;;;10.15;5.00;;;25.50;97.70;;;;;;5023882;28;20117;-79
2023/07/21 02:58:32;;;;;;;8.55;4.80;;;25.40;97.80;;;;;;5049798;28;20376;-79
2023/07/21 03:01:03;;;;;;;11.20;5.45;;;25.40;97.80;;;;;;5053301;28;20037;-78
2023/07/21 03:03:32;;;;;;;14.85;5.30;;;25.50;98.20;;;;;;5014759;28;20037;-79
2023/07/21 03:06:00;;;;;;;9.40;5.68;;;25.30;98.30;;;;;;5013965;28;20103;-80
2023/07/21 03:08:29;;;;;;;12.27;6.00;;;25.20;99.00;;;;;;5033321;28;20037;-80
2023/07/21 03:10:58;;;;;;;13.80;6.28;;;25.20;98.80;;;;;;5036408;28;20042;-79
2023/07/21 03:13:25;;;;;;;12.77;6.57;;;25.30;98.70;;;;;;5006257;28;20057;-80
2023/07/21 03:15:52;;;;;;;12.10;6.10;;;25.30;98.80;;;;;;5033971;28;20040;-79
2023/07/21 03:18:20;;;;;;;11.35;5.93;;;25.00;99.10;;;;;;5047638;28;20381;-80
2023/07/21 03:20:49;;;;;;;15.13;6.57;;;25.00;99.40;;;;;;5033097;28;20056;-78
2023/07/21 03:23:16;;;;;;;9.95;6.28;;;25.00;99.50;;;;;;5021592;28;20124;-79
2023/07/21 03:25:46;;;;;;;11.27;6.00;;;25.10;99.40;;;;;;5035411;28;20037;-77
2023/07/21 03:28:14;;;;;;;11.02;6.35;;;24.40;99.90;;;;;;5014744;28;20048;-79
2023/07/21 03:30:41;;;;;;;13.13;6.85;;;24.20;99.90;;;;;;5041488;28;20060;-78
2023/07/21 03:33:08;;;;;;;13.25;6.10;;;24.40;99.90;;;;;;4994418;28;20037;-78
2023/07/21 03:35:35;;;;;;;11.90;5.85;;;24.90;99.90;;;;;;5039390;28;20065;-79
2023/07/21 03:38:03;;;;;;;11.85;5.70;;;25.10;99.60;;;;;;5028411;28;20449;-80
2023/07/21 03:40:30;;;;;;;10.18;5.88;;;25.10;99.90;;;;;;5005319;28;20381;-80
2023/07/21 03:42:57;;;;;;;15.43;6.45;;;25.20;99.90;;;;;;5024303;28;20075;-82
2023/07/21 03:45:26;;;;;;;12.02;5.93;;;25.40;99.90;;;;;;5033103;28;20043;-81
2023/07/21 03:47:53;;;;;;;12.25;5.65;;;25.30;99.90;;;;;;5009041;28;20030;-82
2023/07/21 03:50:20;;;;;;;13.50;6.07;;;25.20;99.90;;;;;;5041359;28;20060;-80
2023/07/21 03:52:47;;;;;;;11.07;6.90;;;25.10;99.90;;;;;;5025461;28;20041;-81
2023/07/21 03:55:18;;;;;;;10.93;5.25;;;25.10;99.90;;;;;;5020350;28;20041;-80
2023/07/21 03:57:46;;;;;;;9.50;5.68;;;25.20;99.90;;;;;;5024782;28;20091;-79
2023/07/21 04:00:13;;;;;;;12.55;6.75;;;25.20;99.90;;;;;;5028466;28;20132;-79
2023/07/21 04:02:41;;;;;;;13.88;5.63;;;25.20;99.90;;;;;;5044576;28;20111;-79
2023/07/21 04:05:08;;;;;;;14.65;5.25;;;25.30;99.90;;;;;;5051256;28;20033;-79
2023/07/21 04:07:36;;;;;;;13.18;5.93;;;25.30;99.90;;;;;;5035341;28;20069;-82
2023/07/21 04:10:03;;;;;;;15.15;6.05;;;25.20;99.90;;;;;;5017173;28;20064;-80
2023/07/21 04:12:31;;;;;;;15.48;5.90;;;25.00;99.90;;;;;;5038507;28;20037;-81
2023/07/21 04:14:58;;;;;;;9.75;6.00;;;25.20;99.90;;;;;;5020800;28;20033;-80
2023/07/21 04:17:25;;;;;;;10.48;5.75;;;25.30;99.90;;;;;;5009842;28;20044;-81
2023/07/21 04:19:53;;;;;;;9.23;5.53;;;25.00;99.90;;;;;;5019635;28;20029;-81
2023/07/21 04:22:20;;;;;;;10.82;5.50;;;24.90;99.90;;;;;;5034519;28;20374;-79
2023/07/21 04:24:47;;;;;;;8.38;4.90;;;25.00;99.90;;;;;;5033179;28;20152;-79
2023/07/21 04:27:15;;;;;;;9.75;5.30;;;25.00;99.90;;;;;;5015174;28;20044;-81
2023/07/21 04:29:43;;;;;;;10.65;6.65;;;25.10;99.90;;;;;;5022595;28;20041;-76
2023/07/21 04:32:10;;;;;;;43.83;33.17;;;25.10;99.90;;;;;;4993207;28;20116;-79
2023/07/21 04:34:37;;;;;;;98.43;69.88;;;25.20;99.90;;;;;;5030362;28;20033;-79
2023/07/21 04:37:09;;;;;;;85.93;60.78;;;25.30;99.90;;;;;;5034905;28;20041;-77
2023/07/21 04:39:39;;;;;;;26.00;19.45;;;25.30;99.90;;;;;;5043607;28;20033;-78
2023/07/21 04:42:07;;;;;;;14.05;8.18;;;25.40;99.90;;;;;;5027349;28;20116;-78
2023/07/21 04:44:34;;;;;;;13.43;6.63;;;25.20;99.90;;;;;;5005176;28;20382;-76
2023/07/21 04:47:04;;;;;;;12.30;5.50;;;25.20;99.90;;;;;;5031653;28;20378;-78
2023/07/21 04:49:32;;;;;;;8.55;5.50;;;25.10;99.90;;;;;;5021037;28;20033;-78
2023/07/21 04:52:04;;;;;;;54.72;38.33;;;25.10;99.90;;;;;;5026807;28;20152;-78
2023/07/21 04:54:31;;;;;;;56.80;37.33;;;25.20;99.90;;;;;;5038314;28;20088;-77
2023/07/21 04:56:58;;;;;;;18.48;12.98;;;24.80;99.90;;;;;;5020247;28;20071;-79
2023/07/21 04:59:26;;;;;;;18.80;7.55;;;24.60;99.90;;;;;;5002721;28;20073;-78
2023/07/21 05:01:54;;;;;;;15.63;7.38;;;24.60;99.90;;;;;;5033854;28;20396;-80
2023/07/21 05:04:22;;;;;;;13.45;6.70;;;24.70;99.90;;;;;;5019555;28;20144;-77
2023/07/21 05:06:49;;;;;;;13.45;6.88;;;25.00;99.90;;;;;;5024251;28;20438;-79
2023/07/21 05:09:17;;;;;;;14.95;7.18;;;25.00;99.90;;;;;;5036618;28;20108;-77
2023/07/21 05:11:46;;;;;;;13.95;6.10;;;25.20;99.90;;;;;;5021924;28;20113;-79
2023/07/21 05:14:14;;;;;;;10.93;5.75;;;25.30;99.90;;;;;;5012742;28;20107;-79
2023/07/21 05:16:41;;;;;;;33.33;23.20;;;25.50;99.90;;;;;;5023988;28;20061;-78
2023/07/21 05:19:11;;;;;;;112.88;77.18;;;25.50;99.90;;;;;;5024981;28;20072;-79
2023/07/21 05:21:38;;;;;;;25.92;16.40;;;25.50;99.90;;;;;;5021983;28;20549;-79
2023/07/21 05:24:06;;;;;;;13.23;7.88;;;25.50;99.90;;;;;;5030251;28;20281;-79
2023/07/21 05:26:36;;;;;;;10.68;6.40;;;25.40;99.90;;;;;;5027792;28;20071;-78
2023/07/21 05:29:03;;;;;;;12.60;6.90;;;25.50;99.90;;;;;;5017148;28;20507;-77
2023/07/21 05:31:31;;;;;;;10.10;5.45;;;25.60;99.90;;;;;;5030323;28;20112;-78
2023/07/21 05:33:58;;;;;;;15.00;6.38;;;25.50;99.90;;;;;;4997615;28;20135;-77
2023/07/21 05:36:26;;;;;;;12.50;5.75;;;25.40;99.90;;;;;;5025373;28;20556;-78
2023/07/21 05:38:54;;;;;;;14.15;6.13;;;25.50;99.90;;;;;;5038621;28;20444;-75
2023/07/21 05:41:22;;;;;;;11.88;6.35;;;25.60;99.90;;;;;;5014302;28;20034;-78
2023/07/21 05:43:49;;;;;;;159.73;106.75;;;25.60;99.90;;;;;;5024551;28;20044;-79
2023/07/21 05:46:17;;;;;;;88.43;61.75;;;25.80;99.90;;;;;;5029700;28;20041;-78
2023/07/21 05:48:44;;;;;;;140.38;98.80;;;25.70;99.90;;;;;;5025881;28;20042;-75
2023/07/21 05:51:14;;;;;;;36.22;24.23;;;25.70;99.90;;;;;;5014945;28;20033;-78
2023/07/21 05:53:42;;;;;;;26.38;17.10;;;25.70;99.90;;;;;;5002138;28;20046;-77
2023/07/21 05:56:11;;;;;;;45.78;36.55;;;25.90;99.90;;;;;;5029772;28;20041;-78
2023/07/21 05:58:40;;;;;;;130.70;94.05;;;25.90;99.90;;;;;;5035106;28;20049;-76
2023/07/21 06:01:10;;;;;;;37.42;25.20;;;26.00;99.90;;;;;;5001027;28;20362;-79
2023/07/21 06:03:38;;;;;;;16.60;10.40;;;26.20;99.90;;;;;;5024689;28;20034;-79
2023/07/21 06:06:06;;;;;;;22.98;12.02;;;26.20;99.30;;;;;;5026979;28;20041;-79
2023/07/21 06:08:35;;;;;;;50.97;34.63;;;26.10;99.80;;;;;;5010870;28;20029;-77
2023/07/21 06:11:02;;;;;;;22.20;11.95;;;26.20;99.40;;;;;;5027548;28;20120;-76
2023/07/21 06:13:31;;;;;;;16.50;9.82;;;26.20;99.20;;;;;;5020287;28;20061;-79
2023/07/21 06:15:58;;;;;;;17.50;7.78;;;26.20;99.40;;;;;;5026495;28;20064;-79
2023/07/21 06:18:26;;;;;;;18.40;8.88;;;26.10;99.50;;;;;;5029962;28;20045;-77
2023/07/21 06:20:53;;;;;;;47.25;33.47;;;26.20;99.30;;;;;;5015125;28;20482;-80
2023/07/21 06:23:22;;;;;;;36.42;20.60;;;26.30;99.00;;;;;;5043142;28;20038;-79
2023/07/21 06:25:49;;;;;;;39.50;26.50;;;26.30;98.90;;;;;;5035514;28;20051;-80
2023/07/21 06:28:18;;;;;;;17.25;8.82;;;26.40;98.40;;;;;;5029530;28;20041;-77
2023/07/21 06:30:48;;;;;;;;;;;26.30;98.50;;;;;;5052544;28;20075;-77
2023/07/21 06:33:15;;;;;;;13.77;7.53;;;26.50;98.50;;;;;;5038862;28;19921;-77
2023/07/21 06:35:43;;;;;;;16.20;6.55;;;26.60;98.10;;;;;;5042652;28;20534;-79
2023/07/21 06:38:10;;;;;;;13.13;6.93;;;26.60;98.10;;;;;;5011041;28;20045;-77
2023/07/21 06:40:38;;;;;;;12.63;6.50;;;26.60;98.00;;;;;;5020999;28;20073;-78
2023/07/21 06:43:05;;;;;;;10.63;6.68;;;26.70;98.10;;;;;;5030460;28;20037;-78
2023/07/21 06:45:33;;;;;;;14.40;6.40;;;26.60;98.20;;;;;;5033760;28;20025;-78
2023/07/21 06:48:00;;;;;;;12.68;6.40;;;26.70;97.90;;;;;;5022843;28;20420;-76
2023/07/21 06:50:29;;;;;;;14.45;7.03;;;26.80;97.70;;;;;;5036327;28;20439;-79
2023/07/21 06:52:58;;;;;;;13.15;7.53;;;26.80;97.50;;;;;;5023454;28;20057;-78
2023/07/21 06:55:26;;;;;;;14.07;6.70;;;26.80;97.30;;;;;;5044187;28;20094;-78
2023/07/21 06:57:53;;;;;;;14.32;6.78;;;26.80;97.40;;;;;;5045116;28;20034;-79
2023/07/21 07:00:21;;;;;;;14.77;7.30;;;26.90;97.30;;;;;;5000202;28;20042;-80
2023/07/21 07:02:49;;;;;;;13.50;6.47;;;26.90;97.10;;;;;;5031302;28;20088;-79
2023/07/21 07:05:18;;;;;;;10.75;6.22;;;26.90;96.80;;;;;;5019820;28;20042;-81
2023/07/21 07:07:52;;;;;;;9.52;6.07;;;27.00;96.60;;;;;;5034794;28;20125;-79
2023/07/21 07:10:19;;;;;;;10.80;5.63;;;27.00;96.80;;;;;;5018304;28;20368;-77
2023/07/21 07:12:47;;;;;;;11.50;6.07;;;27.10;96.80;;;;;;5035076;28;20049;-77
2023/07/21 07:15:14;;;;;;;13.77;5.72;;;27.10;96.40;;;;;;5035226;28;20104;-78
2023/07/21 07:17:41;;;;;;;11.77;5.95;;;27.00;96.40;;;;;;5017993;28;20128;-77
2023/07/21 07:20:11;;;;;;;14.48;6.57;;;27.00;96.30;;;;;;5034444;28;20045;-78
2023/07/21 07:22:38;;;;;;;8.20;5.17;;;27.10;96.10;;;;;;5020583;28;20049;-78
2023/07/21 07:25:06;;;;;;;10.55;5.68;;;27.20;96.00;;;;;;5015672;28;20114;-76
2023/07/21 07:27:34;;;;;;;11.57;5.75;;;27.30;96.40;;;;;;5018482;28;20049;-78
2023/07/21 07:30:03;;;;;;;10.32;5.13;;;27.40;96.00;;;;;;5017407;28;20049;-77
2023/07/21 07:32:31;;;;;;;11.70;6.10;;;27.40;95.90;;;;;;5017750;28;20040;-78
2023/07/21 07:35:00;;;;;;;13.05;5.60;;;27.40;95.90;;;;;;5037902;28;20033;-76
2023/07/21 07:37:27;;;;;;;9.02;4.97;;;27.30;95.80;;;;;;5037049;28;20503;-77
2023/07/21 07:39:55;;;;;;;12.77;5.20;;;27.40;96.20;;;;;;5035460;28;20033;-78
2023/07/21 07:42:23;;;;;;;8.45;5.30;;;27.60;95.80;;;;;;5002292;28;20041;-77
2023/07/21 07:44:55;;;;;;;10.43;4.78;;;27.50;95.50;;;;;;5035465;28;20440;-77
2023/07/21 07:47:22;;;;;;;8.00;4.55;;;27.70;95.60;;;;;;5045838;28;20040;-78
2023/07/21 07:49:50;;;;;;;9.40;5.13;;;27.60;95.40;;;;;;5002260;28;20042;-74
2023/07/21 07:52:18;;;;;;;17.40;7.60;;;27.70;95.30;;;;;;5019372;28;20049;-78
2023/07/21 07:54:45;;;;;;;54.33;33.85;;;27.70;95.10;;;;;;5023633;28;20034;-79
2023/07/21 07:57:14;;;;;;;42.40;28.17;;;27.70;95.00;;;;;;5044916;28;20422;-78
2023/07/21 07:59:42;;;;;;;12.13;7.15;;;27.70;94.70;;;;;;5037109;28;20033;-78
2023/07/21 08:02:09;;;;;;;11.00;5.90;;;27.70;94.20;;;;;;5042837;28;20056;-78
2023/07/21 08:04:37;;;;;;;10.00;5.13;;;27.80;94.30;;;;;;5042565;28;20037;-78
2023/07/21 08:07:04;;;;;;;12.02;5.55;;;27.80;94.10;;;;;;5040052;28;20048;-78
2023/07/21 08:09:32;;;;;;;66.53;10.07;;;27.90;93.90;;;;;;5036585;28;20038;-77
2023/07/21 08:11:59;;;;;;;11.90;5.65;;;27.90;93.90;;;;;;5037050;28;20045;-82
2023/07/21 08:14:26;;;;;;;11.55;4.97;;;27.90;93.70;;;;;;5044559;28;20419;-79
2023/07/21 08:16:55;;;;;;;27.38;6.18;;;27.90;93.90;;;;;;5019740;28;20033;-81
2023/07/21 08:19:23;;;;;;;11.02;4.35;;;27.90;94.00;;;;;;5049595;28;20041;-80
2023/07/21 08:21:52;;;;;;;11.63;4.60;;;28.00;94.30;;;;;;5019089;28;20065;-80
2023/07/21 08:24:28;;;;;;;8.73;4.50;;;28.10;94.00;;;;;;5041646;28;20052;-81
2023/07/21 08:27:34;;;;;;;13.93;5.40;;;28.20;94.40;;;;;;5012521;28;20066;-82
2023/07/21 08:30:19;;;;;;;10.32;4.88;;;28.40;94.50;;;;;;5006482;28;20132;-82
2023/07/21 08:32:47;;;;;;;12.15;5.05;;;28.40;95.20;;;;;;5029613;28;20077;-81
2023/07/21 08:35:21;;;;;;;9.93;4.85;;;28.30;94.70;;;;;;5012779;28;20316;-79
2023/07/21 08:38:16;;;;;;;9.75;4.78;;;28.30;94.70;;;;;;5006165;28;20060;-86
2023/07/21 08:41:20;;;;;;;8.60;4.78;;;28.30;93.50;;;;;;5002662;28;20042;-87
2023/07/21 08:44:19;;;;;;;9.75;4.53;;;28.40;93.30;;;;;;5014244;28;20056;-86
2023/07/21 08:47:33;;;;;;;7.55;4.35;;;28.50;92.70;;;;;;5008105;28;20072;-88
2023/07/21 08:50:22;;;;;;;7.85;4.13;;;28.50;92.00;;;;;;5010644;28;20085;-88
2023/07/21 08:53:04;;;;;;;7.68;3.83;;;28.60;92.80;;;;;;5035222;28;20042;-88
2023/07/21 08:55:51;;;;;;;11.15;5.60;;;28.70;92.70;;;;;;5020474;28;20041;-86
2023/07/21 08:59:13;;;;;;;14.30;6.05;;;28.90;92.50;;;;;;5013052;28;20052;-87
2023/07/21 09:02:08;;;;;;;8.13;4.80;;;29.00;92.50;;;;;;5034983;28;20129;-91
2023/07/21 09:05:21;;;;;;;6.93;4.45;;;29.00;92.80;;;;;;5179684;23;20052;-87
2023/07/21 09:08:28;;;;;;;9.07;4.35;;;29.20;92.40;;;;;;5023537;28;20077;-87
2023/07/21 09:11:37;;;;;;;6.28;3.80;;;29.10;91.50;;;;;;5036743;28;20025;-88
2023/07/21 09:14:18;;;;;;;8.82;4.93;;;29.10;91.30;;;;;;5022096;28;20099;-82
2023/07/21 09:17:02;;;;;;;17.75;10.05;;;29.30;91.30;;;;;;5006835;28;20074;-84
2023/07/21 09:19:29;;;;;;;14.55;10.35;;;29.40;91.10;;;;;;5033205;28;20034;-83
2023/07/21 09:22:00;;;;;;;9.05;4.22;;;29.40;90.90;;;;;;5036526;28;20071;-83
2023/07/21 09:24:27;;;;;;;8.55;4.40;;;29.40;90.70;;;;;;5030021;28;20073;-82
2023/07/21 09:27:18;;;;;;;10.60;4.38;;;29.60;90.50;;;;;;5018422;28;20046;-82
2023/07/21 09:29:46;;;;;;;10.60;4.35;;;29.70;90.40;;;;;;5036341;28;20049;-80
2023/07/21 09:32:21;;;;;;;8.30;4.22;;;29.90;90.50;;;;;;5053465;28;20105;-88
2023/07/21 09:35:03;;;;;;;8.32;4.60;;;30.00;90.20;;;;;;5034253;28;20077;-85
2023/07/21 09:37:33;;;;;;;9.40;4.28;;;29.90;89.80;;;;;;5038521;28;20056;-83
2023/07/21 09:40:10;;;;;;;6.93;4.20;;;29.90;89.60;;;;;;5043649;28;20042;-87
2023/07/21 09:42:42;;;;;;;10.98;4.40;;;30.00;90.00;;;;;;5007981;28;20401;-84
2023/07/21 09:45:11;;;;;;;12.30;4.32;;;30.10;89.40;;;;;;5033870;28;20087;-86
2023/07/21 09:47:39;;;;;;;11.90;4.32;;;30.40;89.70;;;;;;5043656;28;20045;-81
2023/07/21 09:50:11;;;;;;;8.65;3.92;;;30.50;88.40;;;;;;5046136;28;20057;-82
2023/07/21 09:52:47;;;;;;;9.98;3.90;;;30.40;87.90;;;;;;5047532;28;20045;-81
2023/07/21 09:55:17;;;;;;;10.27;3.85;;;30.40;87.70;;;;;;5024972;28;20050;-84
2023/07/21 09:57:45;;;;;;;;;;;30.40;87.50;;;;;;5043953;28;20061;-83
2023/07/21 10:00:15;;;;;;;11.07;3.90;;;30.50;86.90;;;;;;5043066;28;19921;-85
2023/07/21 10:02:46;;;;;;;9.43;4.03;;;30.80;87.60;;;;;;5046969;28;20025;-82
2023/07/21 10:05:14;;;;;;;9.10;4.28;;;30.90;87.90;;;;;;5035680;28;20061;-83
2023/07/21 10:07:47;;;;;;;8.98;3.60;;;31.00;86.90;;;;;;5026021;28;20045;-84
2023/07/21 10:10:16;;;;;;;8.45;3.70;;;31.10;86.00;;;;;;5028206;28;20087;-83
2023/07/21 10:12:51;;;;;;;8.82;6.22;;;31.10;86.10;;;;;;5028156;28;20099;-79
2023/07/21 10:15:30;;;;;;;25.27;16.42;;;31.00;85.20;;;;;;5040359;28;20052;-79
2023/07/21 10:18:06;;;;;;;33.28;22.13;;;30.90;85.70;;;;;;5038389;28;20077;-80
2023/07/21 10:20:38;;;;;;;14.90;9.25;;;30.80;86.20;;;;;;5032669;28;20065;-80
2023/07/21 10:23:06;;;;;;;11.20;6.45;;;31.10;86.40;;;;;;5025638;28;20128;-82
2023/07/21 10:25:47;;;;;;;11.80;4.85;;;31.50;85.90;;;;;;5044223;28;20080;-87
2023/07/21 10:28:46;;;;;;;8.88;3.70;;;31.70;84.30;;;;;;5046225;28;20049;-86
2023/07/21 10:31:24;;;;;;;9.25;5.00;;;31.90;84.20;;;;;;5036900;28;20042;-80
2023/07/21 10:34:18;;;;;;;10.45;4.25;;;32.00;83.70;;;;;;5044152;28;20065;-83
2023/07/21 10:36:51;;;;;;;7.50;3.35;;;31.80;82.90;;;;;;5035470;28;20096;-84
2023/07/21 10:39:31;;;;;;;11.23;3.78;;;31.70;83.40;;;;;;5040105;28;20064;-85
2023/07/21 10:42:02;;;;;;;9.52;4.18;;;31.70;83.10;;;;;;5037746;28;20110;-81
2023/07/21 10:44:33;;;;;;;7.10;3.80;;;31.80;83.20;;;;;;5034348;28;20128;-78
2023/07/21 10:47:01;;;;;;;8.07;4.07;;;31.90;82.70;;;;;;5021443;28;20137;-80
2023/07/21 10:49:35;;;;;;;9.10;4.68;;;32.10;82.60;;;;;;5044481;28;20018;-86
2023/07/21 10:52:02;;;;;;;11.65;4.28;;;32.20;82.00;;;;;;5047270;28;20445;-79
2023/07/21 10:54:36;;;;;;;9.80;4.20;;;32.30;81.70;;;;;;5044940;28;20037;-91
2023/07/21 10:57:04;;;;;;;11.02;3.97;;;32.40;81.40;;;;;;5038488;28;20125;-81
2023/07/21 10:59:34;;;;;;;8.35;4.07;;;32.40;81.40;;;;;;5019150;28;20677;-81
2023/07/21 11:02:08;;;;;;;9.57;4.40;;;32.50;81.00;;;;;;5035682;28;20497;-86
2023/07/21 11:04:41;;;;;;;12.50;4.37;;;32.70;81.70;;;;;;5025862;28;20056;-78
2023/07/21 11:07:09;;;;;;;10.50;4.63;;;32.80;80.10;;;;;;5031707;28;20293;-80
2023/07/21 11:09:47;;;;;;;11.02;4.60;;;32.90;79.00;;;;;;5034971;28;20068;-82
2023/07/21 11:12:15;;;;;;;8.23;4.60;;;32.80;78.30;;;;;;5031056;28;20033;-83
2023/07/21 11:14:44;;;;;;;11.63;4.50;;;32.80;78.60;;;;;;5038569;28;20042;-84
2023/07/21 11:18:01;;;;;;;9.90;4.28;;;32.90;78.00;;;;;;5052098;28;20036;-82
2023/07/21 11:20:54;;;;;;;10.52;4.63;;;32.90;77.80;;;;;;5038920;28;20054;-82
2023/07/21 11:23:55;;;;;;;7.88;3.83;;;33.00;77.80;;;;;;5038344;28;20022;-84
2023/07/21 11:26:26;;;;;;;10.95;4.10;;;33.00;77.30;;;;;;5037739;28;20037;-80
2023/07/21 11:28:58;;;;;;;12.27;4.40;;;33.00;76.30;;;;;;5037999;28;20065;-84
2023/07/21 11:31:32;;;;;;;14.75;5.03;;;33.20;78.00;;;;;;5041528;28;20112;-81
2023/07/21 11:34:00;;;;;;;37.97;27.63;;;33.40;77.20;;;;;;5031689;28;20046;-78
2023/07/21 11:36:33;;;;;;;30.30;18.95;;;33.10;75.30;;;;;;5046062;28;20038;-81
2023/07/21 11:39:14;;;;;;;34.63;26.48;;;32.90;75.50;;;;;;5030692;28;20048;-86
2023/07/21 11:41:41;;;;;;;13.10;8.15;;;33.00;74.90;;;;;;5029580;28;20113;-83
2023/07/21 11:44:42;;;;;;;9.50;4.65;;;33.20;74.50;;;;;;5046143;28;20038;-80
2023/07/21 11:47:14;;;;;;;14.93;4.60;;;33.40;74.20;;;;;;5051670;28;20050;-77
2023/07/21 11:49:49;;;;;;;16.77;4.10;;;33.80;74.50;;;;;;5054171;28;20053;-78
2023/07/21 11:52:26;;;;;;;8.95;3.65;;;34.00;75.00;;;;;;5009292;28;20041;-82
2023/07/21 11:55:09;;;;;;;9.77;4.05;;;34.20;74.20;;;;;;5049554;28;20041;-79
2023/07/21 11:58:02;;;;;;;12.27;4.65;;;34.10;73.70;;;;;;5041446;28;20044;-83
2023/07/21 12:00:31;;;;;;;;;;;34.20;73.90;;;;;;5044781;28;20041;-78
2023/07/21 12:03:01;;;;;;;11.65;4.35;;;34.30;73.10;;;;;;5049381;28;19936;-80
2023/07/21 12:05:54;;;;;;;8.57;4.28;;;34.40;72.70;;;;;;5007006;28;20061;-78
2023/07/21 12:08:23;;;;;;;12.70;4.07;;;34.20;72.40;;;;;;5049402;28;20476;-78
2023/07/21 12:10:51;;;;;;;7.93;3.88;;;34.10;73.20;;;;;;5032071;28;20077;-78
2023/07/21 12:13:19;;;;;;;8.65;3.38;;;34.10;72.00;;;;;;5029789;28;20037;-79
2023/07/21 12:15:46;;;;;;;11.18;4.03;;;34.20;72.10;;;;;;5030094;28;20126;-78
2023/07/21 12:18:13;;;;;;;14.73;4.45;;;34.50;72.00;;;;;;5022312;28;20061;-79
2023/07/21 12:20:41;;;;;;;9.25;3.75;;;34.50;72.10;;;;;;5031529;28;20472;-81
2023/07/21 12:23:08;;;;;;;9.38;4.00;;;34.60;71.80;;;;;;5037057;28;20029;-82
2023/07/21 12:25:37;;;;;;;9.02;3.92;;;34.50;72.20;;;;;;5037625;28;20057;-83
2023/07/21 12:28:06;;;;;;;10.32;4.22;;;34.70;72.10;;;;;;5031270;28;20041;-84
2023/07/21 12:30:33;;;;;;;12.27;4.05;;;34.70;71.80;;;;;;5023657;28;20129;-80
2023/07/21 12:33:01;;;;;;;12.10;4.55;;;34.80;70.70;;;;;;5034021;28;20064;-80
2023/07/21 12:35:28;;;;;;;7.72;3.75;;;34.80;71.50;;;;;;5030509;28;20052;-84
2023/07/21 12:37:56;;;;;;;11.55;3.85;;;34.70;71.10;;;;;;5027204;28;20080;-81
2023/07/21 12:40:24;;;;;;;13.65;4.38;;;34.60;70.20;;;;;;5022218;28;20046;-81
2023/07/21 12:42:51;;;;;;;13.73;4.18;;;34.60;70.10;;;;;;5036843;28;20068;-81
2023/07/21 12:45:19;;;;;;;22.67;15.55;;;34.80;71.60;;;;;;5027906;28;20042;-80
2023/07/21 12:47:46;;;;;;;53.25;42.30;;;34.60;70.30;;;;;;5034421;28;20044;-75
2023/07/21 12:50:14;;;;;;;20.40;13.65;;;34.40;70.30;;;;;;5025694;28;20042;-81
2023/07/21 12:52:42;;;;;;;12.13;6.13;;;34.50;68.60;;;;;;5025918;28;20077;-80
2023/07/21 12:55:10;;;;;;;11.85;4.93;;;34.80;68.50;;;;;;5023616;28;20105;-85
2023/07/21 12:57:37;;;;;;;10.95;4.88;;;35.00;68.20;;;;;;5021724;28;20037;-87
2023/07/21 13:00:05;;;;;;;11.00;4.63;;;35.20;68.20;;;;;;5047070;28;20084;-83